Dobrodošli na spletni strani vremenske postaje Senovo. Vse informacije so informativnega značaja, saj vremenska postaja ni del državne mreže meteoroloških postaj. AKTUALNIH OBVESTIL NI.


Sneg/Led Od: 22-02-2018 00:00 Do: 23-02-2018 23:59 Opozorilo za: Sneg/Led Stopnja: Rumena info button
Veter Od: 22-02-2018 00:00 Do: 23:59 Opozorilo za: Veter Stopnja: Rumena info button

Pogled proti Armezu več informacij Pogled proti Armezu


Lisca več informacij Lisca


Radar strel več informacij blitzortung!


opozorilo za sneg/led več informacij rain snow radar


Obiščite še:

Template documentation
and downloads

And another site



Weather Underground, zgodovina - Tekstovno

Dnevni povzetek za Januar 28, 2018 Enote:  Angleško    Metrično   Obe
« Predhodni Dan
Naslednji Dan »
Dnevni Tedenski Mesečni Letni Po meri
  Višja: Nižja: Povprečje:
Temperatura: TemperatureC °F -0.4 °F 2.9 °F
Točka rosišča: DewpointC °F -1.8 °F 1.6 °F
Vlažnost: Humidity % 87 % 91 %
Hitrost vetra: WindSpeedKMH mph 0.0 mph 1.5 mph
Sunki vetra: WindSpeedGustKMH mph - -
Veter:- - SSW
Zračni tlak: PressurehPa in 1030.0 in -
Padavine: 0.0 in    
Historical Graphs
 
 
Tabelarni podarki za Januar 28, 2018
Čas Temperatura Točka rosišča Zračni tlak Veter Hitrost vetra Sunki vetra Vlažnost Intenziteta padavin (urna)
TemperatureC °F DewpointC °F PressurehPa in Calm     Humidity % HourlyPrecipMM in
00:04 3.0 °F 1.7 °F 1032.1 in East 1.9 mph 4.7 mph 91 % 0.0 in
00:09 3.0 °F 1.7 °F 1032.1 in East 2.3 mph 4.7 mph 91 % 0.0 in
00:14 3.0 °F 1.7 °F 1033.1 in East 2.9 mph 6.9 mph 91 % 0.0 in
00:19 3.0 °F 1.7 °F 1033.1 in East 2.9 mph 6.9 mph 91 % 0.0 in
00:24 3.0 °F 1.7 °F 1033.1 in East 3.4 mph 6.1 mph 91 % 0.0 in
00:29 2.9 °F 1.6 °F 1033.1 in East 3.9 mph 6.1 mph 91 % 0.0 in
00:34 2.9 °F 1.6 °F 1033.1 in East 3.7 mph 6.1 mph 91 % 0.0 in
00:39 2.9 °F 1.6 °F 1033.1 in East 3.9 mph 6.4 mph 91 % 0.0 in
00:44 2.9 °F 1.6 °F 1033.1 in East 4.0 mph 6.4 mph 91 % 0.0 in
00:49 2.9 °F 1.6 °F 1033.1 in East 4.0 mph 6.1 mph 91 % 0.0 in
00:54 2.9 °F 1.6 °F 1033.1 in East 4.0 mph 6.1 mph 91 % 0.0 in
00:59 2.9 °F 1.6 °F 1033.1 in East 3.9 mph 6.1 mph 91 % 0.0 in
01:04 2.9 °F 1.6 °F 1033.1 in East 3.9 mph 6.1 mph 91 % 0.0 in
01:09 2.9 °F 1.6 °F 1033.1 in East 3.5 mph 5.8 mph 91 % 0.0 in
01:14 2.9 °F 1.6 °F 1032.1 in ESE 2.1 mph 4.7 mph 91 % 0.0 in
01:19 2.9 °F 1.6 °F 1032.1 in East 2.1 mph 4.7 mph 91 % 0.0 in
01:24 2.8 °F 1.5 °F 1032.1 in East 2.4 mph 4.7 mph 91 % 0.0 in
01:29 2.9 °F 1.6 °F 1033.1 in East 2.1 mph 5.5 mph 91 % 0.0 in
01:34 2.9 °F 1.6 °F 1033.1 in ESE 3.1 mph 5.8 mph 91 % 0.0 in
01:39 2.8 °F 1.5 °F 1033.1 in East 2.7 mph 5.8 mph 91 % 0.0 in
01:44 2.8 °F 1.5 °F 1032.1 in East 2.6 mph 5.5 mph 91 % 0.0 in
01:49 2.8 °F 1.5 °F 1032.1 in East 3.9 mph 7.6 mph 91 % 0.0 in
01:54 2.8 °F 1.5 °F 1032.1 in East 3.5 mph 7.6 mph 91 % 0.0 in
01:59 2.8 °F 1.5 °F 1032.1 in East 2.7 mph 5.5 mph 91 % 0.0 in
02:02 2.8 °F 1.5 °F 1032.1 in East 2.7 mph 5.5 mph 91 % 0.0 in
02:07 2.8 °F 1.5 °F 1032.1 in East 2.3 mph 5.0 mph 91 % 0.0 in
02:12 2.8 °F 1.5 °F 1032.1 in ENE 2.3 mph 5.0 mph 91 % 0.0 in
02:17 2.8 °F 1.5 °F 1032.1 in NE 1.6 mph 4.3 mph 91 % 0.0 in
02:22 2.8 °F 1.5 °F 1032.1 in NE 0.5 mph 3.5 mph 91 % 0.0 in
02:27 2.8 °F 1.5 °F 1033.1 in Calm     91 % 0.0 in
02:32 2.8 °F 1.5 °F 1033.1 in Calm     91 % 0.0 in
02:37 2.8 °F 1.5 °F 1033.1 in Calm     91 % 0.0 in
02:42 2.8 °F 1.5 °F 1033.1 in Calm     91 % 0.0 in
02:47 2.8 °F 1.5 °F 1033.1 in Calm     91 % 0.0 in
02:52 2.8 °F 1.5 °F 1033.1 in Calm     91 % 0.0 in
02:57 2.8 °F 1.5 °F 1033.1 in Calm     91 % 0.0 in
03:02 2.8 °F 1.5 °F 1033.1 in Calm     91 % 0.0 in
03:07 2.8 °F 1.5 °F 1033.1 in Calm     91 % 0.0 in
03:12 2.8 °F 1.5 °F 1033.1 in Calm     91 % 0.0 in
03:17 2.8 °F 1.5 °F 1033.1 in Calm     91 % 0.0 in
03:22 2.8 °F 1.5 °F 1033.1 in Calm     91 % 0.0 in
03:27 2.8 °F 1.5 °F 1033.1 in Calm     91 % 0.0 in
03:32 2.8 °F 1.5 °F 1033.1 in Calm     91 % 0.0 in
03:37 2.8 °F 1.5 °F 1033.1 in Calm     91 % 0.0 in
03:42 2.8 °F 1.5 °F 1033.1 in Calm     91 % 0.0 in
03:47 2.8 °F 1.5 °F 1033.1 in Calm     91 % 0.0 in
03:52 2.8 °F 1.5 °F 1033.1 in Calm     91 % 0.0 in
03:57 2.8 °F 1.6 °F 1033.1 in Calm     92 % 0.0 in
04:02 2.8 °F 1.6 °F 1033.1 in SSW 0.3 mph 4.0 mph 92 % 0.0 in
04:07 2.8 °F 1.6 °F 1033.1 in SW 1.4 mph 4.0 mph 92 % 0.0 in
04:12 2.8 °F 1.6 °F 1033.1 in SW 1.9 mph 4.0 mph 92 % 0.0 in
04:17 2.8 °F 1.6 °F 1033.1 in SW 1.3 mph 3.5 mph 92 % 0.0 in
04:22 2.8 °F 1.6 °F 1033.1 in SW 1.4 mph 3.2 mph 92 % 0.0 in
04:27 2.8 °F 1.6 °F 1034.1 in SW 1.0 mph 3.2 mph 92 % 0.0 in
04:32 2.8 °F 1.6 °F 1034.1 in SSW 0.5 mph 3.5 mph 92 % 0.0 in
04:37 2.8 °F 1.6 °F 1034.1 in SSW 1.8 mph 4.0 mph 92 % 0.0 in
04:42 2.8 °F 1.6 °F 1033.1 in SW 2.9 mph 4.0 mph 92 % 0.0 in
04:47 2.8 °F 1.6 °F 1033.1 in SW 2.4 mph 4.0 mph 92 % 0.0 in
04:52 2.8 °F 1.6 °F 1033.1 in SW 1.8 mph 4.0 mph 92 % 0.0 in
04:57 2.8 °F 1.6 °F 1033.1 in SSW 1.1 mph 3.2 mph 92 % 0.0 in
05:02 2.8 °F 1.6 °F 1033.1 in SSW 1.4 mph 4.0 mph 92 % 0.0 in
05:07 2.8 °F 1.6 °F 1033.1 in SW 2.1 mph 4.3 mph 92 % 0.0 in
05:12 2.8 °F 1.6 °F 1033.1 in SW 1.1 mph 4.3 mph 92 % 0.0 in
05:17 2.8 °F 1.6 °F 1033.1 in SW 0.3 mph 2.6 mph 92 % 0.0 in
05:22 2.8 °F 1.6 °F 1033.1 in SW 0.2 mph 2.6 mph 92 % 0.0 in
05:27 2.9 °F 1.7 °F 1033.1 in Calm     92 % 0.0 in
05:33 2.8 °F 1.6 °F 1033.1 in Calm     92 % 0.0 in
05:38 2.9 °F 1.7 °F 1033.1 in Calm     92 % 0.0 in
05:43 2.9 °F 1.7 °F 1033.1 in Calm     92 % 0.0 in
05:48 2.9 °F 1.7 °F 1033.1 in Calm     92 % 0.0 in
05:53 2.9 °F 1.7 °F 1033.1 in Calm     92 % 0.0 in
05:58 2.9 °F 1.7 °F 1033.1 in Calm     92 % 0.0 in
06:03 2.9 °F 1.9 °F 1033.1 in Calm     93 % 0.0 in
06:08 2.9 °F 1.9 °F 1033.1 in Calm     93 % 0.0 in
06:13 2.9 °F 1.9 °F 1033.1 in Calm     93 % 0.0 in
06:18 2.9 °F 1.9 °F 1033.1 in Calm     93 % 0.0 in
06:23 2.9 °F 1.9 °F 1033.1 in Calm     93 % 0.0 in
06:28 2.9 °F 1.9 °F 1033.1 in Calm     93 % 0.0 in
06:33 3.0 °F 1.8 °F 1033.1 in South 0.5 mph 4.7 mph 92 % 0.0 in
06:38 3.0 °F 2.0 °F 1033.1 in South 0.6 mph 4.7 mph 93 % 0.0 in
06:43 3.0 °F 2.0 °F 1034.1 in North 0.2 mph   93 % 0.0 in
06:48 3.0 °F 2.0 °F 1034.1 in Calm     93 % 0.0 in
06:53 3.0 °F 2.0 °F 1034.1 in Calm     93 % 0.0 in
06:58 3.0 °F 2.0 °F 1033.1 in Calm     93 % 0.0 in
07:03 3.0 °F 2.0 °F 1033.1 in Calm     93 % 0.0 in
07:08 3.0 °F 2.0 °F 1033.1 in SSE 0.3 mph 4.0 mph 93 % 0.0 in
07:13 3.0 °F 2.0 °F 1033.1 in SSE 1.4 mph 4.3 mph 93 % 0.0 in
07:18 3.0 °F 2.0 °F 1033.1 in SSE 1.6 mph 4.3 mph 93 % 0.0 in
07:23 3.0 °F 2.0 °F 1033.1 in SSE 0.8 mph 4.0 mph 93 % 0.0 in
07:28 3.0 °F 2.0 °F 1033.1 in SSE 1.0 mph 4.0 mph 93 % 0.0 in
07:33 3.0 °F 2.0 °F 1033.1 in SSE 0.6 mph 4.0 mph 93 % 0.0 in
07:38 3.0 °F 2.0 °F 1033.1 in Calm     93 % 0.0 in
07:43 3.1 °F 2.1 °F 1034.1 in Calm     93 % 0.0 in
07:48 3.1 °F 2.1 °F 1034.1 in Calm   3.5 mph 93 % 0.0 in
07:53 3.1 °F 2.1 °F 1034.1 in South 0.2 mph 3.5 mph 93 % 0.0 in
07:58 3.1 °F 2.1 °F 1033.1 in South 0.2 mph 2.6 mph 93 % 0.0 in
08:03 3.1 °F 2.1 °F 1033.1 in SW 0.3 mph 3.5 mph 93 % 0.0 in
08:08 3.1 °F 2.1 °F 1033.1 in SW 0.3 mph 3.5 mph 93 % 0.0 in
08:13 3.1 °F 2.1 °F 1032.1 in SSE 0.2 mph 2.6 mph 93 % 0.0 in
08:18 3.1 °F 2.1 °F 1032.1 in WSW 0.8 mph 5.5 mph 93 % 0.0 in
08:23 3.2 °F 2.2 °F 1032.1 in WSW 0.8 mph 5.5 mph 93 % 0.0 in
08:28 3.2 °F 2.3 °F 1033.1 in SW 1.1 mph 4.7 mph 94 % 0.0 in
08:33 3.2 °F 2.3 °F 1033.1 in SSW 2.1 mph 6.4 mph 94 % 0.0 in
08:38 3.3 °F 2.4 °F 1033.1 in SSW 2.4 mph 7.6 mph 94 % 0.0 in
08:43 3.3 °F 2.4 °F 1032.1 in SW 3.4 mph 7.6 mph 94 % 0.0 in
08:48 3.3 °F 2.4 °F 1032.1 in WSW 4.2 mph 6.4 mph 94 % 0.0 in
08:53 3.3 °F 2.4 °F 1032.1 in West 4.2 mph 6.4 mph 94 % 0.0 in
08:59 3.3 °F 2.4 °F 1033.1 in WNW 2.9 mph 6.4 mph 94 % 0.0 in
09:04 3.3 °F 2.4 °F 1033.1 in West 2.1 mph 7.6 mph 94 % 0.0 in
09:09 3.4 °F 2.5 °F 1033.1 in West 2.9 mph 7.6 mph 94 % 0.0 in
09:14 3.4 °F 2.5 °F 1033.1 in WNW 2.4 mph 6.4 mph 94 % 0.0 in
09:19 3.4 °F 2.5 °F 1033.1 in WSW 2.3 mph 6.4 mph 94 % 0.0 in
09:24 3.4 °F 2.5 °F 1033.1 in WSW 2.6 mph 5.5 mph 94 % 0.0 in
09:29 3.5 °F 2.6 °F 1033.1 in West 2.9 mph 5.0 mph 94 % 0.0 in
09:34 3.5 °F 2.6 °F 1033.1 in West 2.3 mph 5.5 mph 94 % 0.0 in
09:39 3.5 °F 2.6 °F 1033.1 in WSW 1.1 mph 5.5 mph 94 % 0.0 in
09:44 3.6 °F 2.7 °F 1033.1 in SW 1.4 mph 4.3 mph 94 % 0.0 in
09:49 3.6 °F 2.7 °F 1033.1 in SW 1.4 mph 4.3 mph 94 % 0.0 in
09:54 3.6 °F 2.7 °F 1033.1 in SW 2.6 mph 6.9 mph 94 % 0.0 in
09:59 3.7 °F 2.8 °F 1033.1 in SW 4.2 mph 6.9 mph 94 % 0.0 in
10:04 3.7 °F 2.8 °F 1033.1 in SW 3.1 mph 6.1 mph 94 % 0.0 in
10:09 3.7 °F 2.8 °F 1033.1 in SW 1.6 mph 4.7 mph 94 % 0.0 in
10:14 3.7 °F 2.8 °F 1033.1 in WSW 0.8 mph 5.0 mph 94 % 0.0 in
10:19 3.8 °F 2.9 °F 1033.1 in SW 1.6 mph 5.8 mph 94 % 0.0 in
10:24 3.8 °F 2.9 °F 1033.1 in South 2.9 mph 6.9 mph 94 % 0.0 in
10:29 3.8 °F 2.9 °F 1033.1 in SW 3.9 mph 9.0 mph 94 % 0.0 in
10:34 3.8 °F 2.9 °F 1033.1 in SW 5.1 mph 9.0 mph 94 % 0.0 in
10:39 3.9 °F 3.0 °F 1033.1 in SW 3.5 mph 6.4 mph 94 % 0.0 in
10:44 3.9 °F 3.0 °F 1034.1 in West 2.4 mph 5.8 mph 94 % 0.0 in
10:49 4.0 °F 3.1 °F 1034.1 in NW 1.6 mph 5.8 mph 94 % 0.0 in
10:54 4.0 °F 3.1 °F 1034.1 in WNW 1.8 mph 6.9 mph 94 % 0.0 in
10:59 4.0 °F 3.1 °F 1033.1 in WNW 4.0 mph 7.9 mph 94 % 0.0 in
11:04 4.1 °F 3.2 °F 1033.1 in West 4.2 mph 9.3 mph 94 % 0.0 in
11:09 4.1 °F 3.2 °F 1033.1 in SW 4.3 mph 9.7 mph 94 % 0.0 in
11:14 4.2 °F 3.3 °F 1034.1 in SSW 5.0 mph 9.7 mph 94 % 0.0 in
11:19 4.2 °F 3.3 °F 1034.1 in SW 5.3 mph 10.5 mph 94 % 0.0 in
11:24 4.3 °F 3.4 °F 1034.1 in SW 6.0 mph 10.5 mph 94 % 0.0 in
11:29 4.3 °F 3.4 °F 1033.1 in SW 5.5 mph 9.7 mph 94 % 0.0 in
11:34 4.4 °F 3.5 °F 1033.1 in WSW 4.3 mph 9.3 mph 94 % 0.0 in
11:39 4.4 °F 3.5 °F 1033.1 in SW 4.3 mph 7.2 mph 94 % 0.0 in
11:44 4.5 °F 3.6 °F 1033.1 in SW 5.0 mph 7.9 mph 94 % 0.0 in
11:49 4.6 °F 3.7 °F 1033.1 in SW 5.6 mph 10.5 mph 94 % 0.0 in
11:54 4.6 °F 3.7 °F 1033.1 in SW 5.8 mph 10.5 mph 94 % 0.0 in
11:59 4.6 °F 3.7 °F 1032.1 in WSW 4.8 mph 10.5 mph 94 % 0.0 in
12:04 4.6 °F 3.7 °F 1032.1 in West 4.3 mph 10.5 mph 94 % 0.0 in
12:09 4.6 °F 3.7 °F 1032.1 in WSW 3.2 mph 9.0 mph 94 % 0.0 in
12:14 4.7 °F 3.8 °F 1033.1 in SW 3.1 mph 6.9 mph 94 % 0.0 in
12:19 4.7 °F 3.8 °F 1033.1 in SW 4.0 mph 10.5 mph 94 % 0.0 in
12:24 4.8 °F 3.9 °F 1033.1 in WSW 4.8 mph 10.5 mph 94 % 0.0 in
12:29 4.8 °F 3.9 °F 1033.1 in WSW 5.6 mph 12.6 mph 94 % 0.0 in
12:34 4.8 °F 3.9 °F 1033.1 in West 4.0 mph 12.6 mph 94 % 0.0 in
12:36 4.8 °F 3.9 °F 1033.1 in WNW 3.2 mph 7.9 mph 94 % 0.0 in
12:41 4.9 °F 4.0 °F 1033.1 in WNW 2.9 mph 6.9 mph 94 % 0.0 in
12:46 5.0 °F 3.9 °F 1033.1 in West 3.1 mph 6.9 mph 93 % 0.0 in
12:51 5.0 °F 3.9 °F 1033.1 in West 4.7 mph 12.2 mph 93 % 0.0 in
12:56 5.1 °F 4.1 °F 1033.1 in West 5.1 mph 12.2 mph 93 % 0.0 in
13:01 5.2 °F 4.2 °F 1033.1 in WSW 3.2 mph 7.6 mph 93 % 0.0 in
13:06 5.3 °F 4.3 °F 1033.1 in SW 1.8 mph 6.1 mph 93 % 0.0 in
13:11 5.4 °F 4.3 °F 1034.1 in West 2.9 mph 7.6 mph 93 % 0.0 in
13:16 5.5 °F 4.4 °F 1034.1 in SW 4.8 mph 10.1 mph 93 % 0.0 in
13:21 5.5 °F 4.4 °F 1034.1 in SSW 5.5 mph 10.1 mph 93 % 0.0 in
13:26 5.5 °F 4.4 °F 1032.1 in SW 4.8 mph 9.0 mph 93 % 0.0 in
13:31 5.5 °F 4.4 °F 1032.1 in West 4.0 mph 9.0 mph 93 % 0.0 in
13:36 5.4 °F 4.3 °F 1032.1 in West 4.0 mph 7.9 mph 93 % 0.0 in
13:41 5.4 °F 4.3 °F 1032.1 in WSW 5.3 mph 9.7 mph 93 % 0.0 in
13:46 5.4 °F 4.2 °F 1032.1 in SW 5.3 mph 9.7 mph 92 % 0.0 in
13:51 5.4 °F 4.2 °F 1032.1 in SW 4.8 mph 8.7 mph 92 % 0.0 in
13:56 5.4 °F 4.2 °F 1032.1 in SW 4.3 mph 8.7 mph 92 % 0.0 in
14:01 5.4 °F 4.2 °F 1032.1 in West 2.9 mph 5.8 mph 92 % 0.0 in
14:06 5.4 °F 4.2 °F 1032.1 in WNW 1.8 mph 6.1 mph 92 % 0.0 in
14:11 5.4 °F 4.2 °F 1032.1 in WSW 3.1 mph 7.6 mph 92 % 0.0 in
14:16 5.5 °F 4.3 °F 1032.1 in West 4.5 mph 9.3 mph 92 % 0.0 in
14:21 5.4 °F 4.2 °F 1032.1 in WNW 4.7 mph 9.3 mph 92 % 0.0 in
14:26 5.5 °F 4.2 °F 1032.1 in WNW 3.9 mph 7.6 mph 91 % 0.0 in
14:31 5.4 °F 4.1 °F 1032.1 in NW 3.5 mph 7.6 mph 91 % 0.0 in
14:36 5.6 °F 4.2 °F 1032.1 in NNW 3.2 mph 5.8 mph 91 % 0.0 in
14:41 5.6 °F 4.2 °F 1031.0 in NW 2.9 mph 7.2 mph 91 % 0.0 in
14:46 5.7 °F 4.3 °F 1031.0 in NW 3.1 mph 7.2 mph 91 % 0.0 in
14:51 5.8 °F 4.4 °F 1031.0 in WSW 3.1 mph 7.9 mph 91 % 0.0 in
14:56 5.9 °F 4.6 °F 1031.0 in WSW 3.5 mph 7.9 mph 91 % 0.0 in
15:01 5.9 °F 4.6 °F 1031.0 in SW 2.6 mph 5.8 mph 91 % 0.0 in
15:06 5.9 °F 4.6 °F 1031.0 in SSW 3.7 mph 6.1 mph 91 % 0.0 in
15:11 5.9 °F 4.4 °F 1031.0 in SW 5.0 mph 6.9 mph 90 % 0.0 in
15:16 5.8 °F 4.3 °F 1031.0 in SW 4.8 mph 6.9 mph 90 % 0.0 in
15:21 5.8 °F 4.3 °F 1031.0 in SSW 4.7 mph 6.4 mph 90 % 0.0 in
15:26 5.8 °F 4.3 °F 1031.0 in SSW 4.5 mph 6.4 mph 90 % 0.0 in
15:31 5.8 °F 4.3 °F 1031.0 in SW 3.5 mph 6.4 mph 90 % 0.0 in
15:37 5.8 °F 4.1 °F 1031.0 in SW 2.7 mph 4.7 mph 89 % 0.0 in
15:42 5.8 °F 4.1 °F 1031.0 in SW 1.9 mph 4.0 mph 89 % 0.0 in
15:47 5.8 °F 4.1 °F 1031.0 in SW 1.0 mph 3.2 mph 89 % 0.0 in
15:52 5.8 °F 4.1 °F 1031.0 in SW 0.3 mph 3.2 mph 89 % 0.0 in
15:57 5.7 °F 4.0 °F 1031.0 in SE 0.2 mph 3.2 mph 89 % 0.0 in
16:02 5.7 °F 4.0 °F 1031.0 in SE 0.3 mph 3.2 mph 89 % 0.0 in
16:07 5.6 °F 3.8 °F 1031.0 in SSE 0.2 mph 2.1 mph 88 % 0.0 in
16:12 5.5 °F 3.7 °F 1031.0 in Calm   2.1 mph 88 % 0.0 in
16:17 5.4 °F 3.6 °F 1031.0 in Calm   1.4 mph 88 % 0.0 in
16:22 5.3 °F 3.5 °F 1031.0 in Calm     88 % 0.0 in
16:27 5.1 °F 3.3 °F 1031.0 in Calm     88 % 0.0 in
16:32 5.0 °F 3.2 °F 1031.0 in Calm     88 % 0.0 in
16:37 4.9 °F 3.1 °F 1031.0 in SW 0.2 mph 4.3 mph 88 % 0.0 in
16:42 4.7 °F 2.9 °F 1031.0 in SW 2.1 mph 5.5 mph 88 % 0.0 in
16:47 4.4 °F 2.6 °F 1031.0 in WSW 2.1 mph 5.5 mph 88 % 0.0 in
16:52 4.3 °F 2.5 °F 1031.0 in North 0.3 mph 2.6 mph 88 % 0.0 in
16:57 4.1 °F 2.1 °F 1031.0 in Calm     87 % 0.0 in
17:02 3.9 °F 2.1 °F 1031.0 in SW 0.2 mph 2.6 mph 88 % 0.0 in
17:07 3.6 °F 1.8 °F 1031.0 in WNW 0.3 mph 2.6 mph 88 % 0.0 in
17:12 3.5 °F 1.7 °F 1031.0 in NW 0.3 mph 2.6 mph 88 % 0.0 in
17:17 3.3 °F 1.3 °F 1031.0 in Calm     87 % 0.0 in
17:22 3.1 °F 1.2 °F 1031.0 in NW 0.3 mph 3.5 mph 87 % 0.0 in
17:27 2.9 °F 1.1 °F 1031.0 in NW 0.3 mph 3.5 mph 88 % 0.0 in
17:32 2.8 °F 1.0 °F 1031.0 in Calm     88 % 0.0 in
17:37 2.6 °F 0.8 °F 1031.0 in Calm     88 % 0.0 in
17:42 2.5 °F 0.7 °F 1031.0 in Calm     88 % 0.0 in
17:47 2.4 °F 0.6 °F 1031.0 in WSW 0.2 mph 2.6 mph 88 % 0.0 in
17:52 2.2 °F 0.3 °F 1031.0 in WSW 0.2 mph 2.6 mph 87 % 0.0 in
17:57 2.0 °F 0.1 °F 1031.0 in WSW 0.2 mph 3.2 mph 87 % 0.0 in
18:02 2.0 °F 0.1 °F 1031.0 in WSW 0.3 mph 3.2 mph 87 % 0.0 in
18:07 1.9 °F 0.1 °F 1031.0 in North 0.2 mph   88 % 0.0 in
18:12 1.7 °F -0.1 °F 1031.0 in Calm     88 % 0.0 in
18:17 1.7 °F -0.1 °F 1031.0 in Calm     88 % 0.0 in
18:22 1.6 °F -0.2 °F 1031.0 in Calm     88 % 0.0 in
18:27 1.4 °F -0.4 °F 1031.0 in Calm     88 % 0.0 in
18:32 1.3 °F -0.4 °F 1031.0 in Calm     88 % 0.0 in
18:37 1.2 °F -0.6 °F 1031.0 in Calm     88 % 0.0 in
18:42 1.1 °F -0.7 °F 1031.0 in Calm     88 % 0.0 in
18:47 1.1 °F -0.7 °F 1031.0 in Calm     88 % 0.0 in
18:52 1.0 °F -0.8 °F 1031.0 in NW 0.3 mph 3.2 mph 88 % 0.0 in
18:57 0.9 °F -0.9 °F 1031.0 in NW 0.3 mph 3.2 mph 88 % 0.0 in
19:02 0.8 °F -0.9 °F 1031.0 in Calm     88 % 0.0 in
19:07 0.8 °F -0.9 °F 1031.0 in Calm     88 % 0.0 in
19:12 0.8 °F -0.9 °F 1031.0 in Calm     88 % 0.0 in
19:18 0.7 °F -0.9 °F 1031.0 in Calm     89 % 0.0 in
19:23 0.6 °F -1.0 °F 1031.0 in Calm     89 % 0.0 in
19:28 0.6 °F -1.0 °F 1031.0 in Calm   2.1 mph 89 % 0.0 in
19:33 0.6 °F -1.0 °F 1031.0 in Calm   2.1 mph 89 % 0.0 in
19:38 0.5 °F -1.1 °F 1031.0 in Calm     89 % 0.0 in
19:43 0.5 °F -1.1 °F 1031.0 in Calm     89 % 0.0 in
19:48 0.4 °F -1.2 °F 1031.0 in Calm     89 % 0.0 in
19:53 0.4 °F -1.2 °F 1031.0 in Calm     89 % 0.0 in
19:58 0.3 °F -1.3 °F 1031.0 in Calm     89 % 0.0 in
20:03 0.3 °F -1.3 °F 1031.0 in Calm     89 % 0.0 in
20:08 0.2 °F -1.4 °F 1031.0 in Calm     89 % 0.0 in
20:13 0.2 °F -1.4 °F 1032.1 in Calm     89 % 0.0 in
20:18 0.1 °F -1.5 °F 1032.1 in Calm     89 % 0.0 in
20:23 0.1 °F -1.5 °F 1032.1 in Calm     89 % 0.0 in
20:28 0.1 °F -1.5 °F 1032.1 in Calm     89 % 0.0 in
20:33 0.0 °F -1.6 °F 1032.1 in Calm     89 % 0.0 in
20:38 0.0 °F -1.6 °F 1032.1 in Calm     89 % 0.0 in
20:43 0.0 °F -1.6 °F 1032.1 in Calm     89 % 0.0 in
20:48 -0.1 °F -1.7 °F 1032.1 in Calm     89 % 0.0 in
20:53 -0.1 °F -1.6 °F 1032.1 in Calm     90 % 0.0 in
20:58 -0.1 °F -1.6 °F 1032.1 in Calm     90 % 0.0 in
21:03 -0.1 °F -1.6 °F 1032.1 in Calm     90 % 0.0 in
21:08 -0.2 °F -1.7 °F 1032.1 in Calm     90 % 0.0 in
21:13 -0.2 °F -1.7 °F 1031.0 in Calm     90 % 0.0 in
21:18 -0.2 °F -1.7 °F 1031.0 in Calm     90 % 0.0 in
21:23 -0.2 °F -1.7 °F 1031.0 in Calm     90 % 0.0 in
21:28 -0.3 °F -1.7 °F 1031.0 in Calm     90 % 0.0 in
21:33 -0.3 °F -1.7 °F 1031.0 in Calm     90 % 0.0 in
21:38 -0.3 °F -1.7 °F 1031.0 in Calm     90 % 0.0 in
21:43 -0.4 °F -1.8 °F 1031.0 in Calm     90 % 0.0 in
21:48 -0.4 °F -1.8 °F 1031.0 in Calm     90 % 0.0 in
21:53 -0.3 °F -1.7 °F 1031.0 in Calm   3.2 mph 90 % 0.0 in
21:58 -0.3 °F -1.7 °F 1031.0 in SW 1.0 mph 3.5 mph 90 % 0.0 in
22:04 -0.2 °F -1.7 °F 1031.0 in SW 0.8 mph 3.5 mph 90 % 0.0 in
22:08 -0.2 °F -1.5 °F 1031.0 in Calm     91 % 0.0 in
22:14 -0.3 °F -1.6 °F 1032.1 in Calm     91 % 0.0 in
22:19 -0.2 °F -1.5 °F 1032.1 in Calm     91 % 0.0 in
22:24 -0.2 °F -1.5 °F 1032.1 in Calm     91 % 0.0 in
22:29 -0.2 °F -1.5 °F 1031.0 in Calm     91 % 0.0 in
22:34 -0.2 °F -1.5 °F 1031.0 in Calm     91 % 0.0 in
22:39 -0.1 °F -1.4 °F 1031.0 in Calm     91 % 0.0 in
22:44 -0.1 °F -1.4 °F 1031.0 in Calm     91 % 0.0 in
22:49 0.0 °F -1.2 °F 1031.0 in Calm     92 % 0.0 in
22:54 0.0 °F -1.2 °F 1031.0 in Calm     92 % 0.0 in
22:59 0.1 °F -1.1 °F 1031.0 in Calm     92 % 0.0 in
23:04 0.1 °F -1.1 °F 1031.0 in Calm     92 % 0.0 in
23:09 0.1 °F -1.1 °F 1031.0 in Calm     92 % 0.0 in
23:14 0.2 °F -0.9 °F 1031.0 in Calm     92 % 0.0 in
23:19 0.2 °F -0.9 °F 1031.0 in Calm     92 % 0.0 in
23:24 0.2 °F -0.9 °F 1031.0 in Calm     92 % 0.0 in
23:29 0.3 °F -0.7 °F 1031.0 in Calm     93 % 0.0 in
23:34 0.3 °F -0.7 °F 1031.0 in Calm     93 % 0.0 in
23:39 0.4 °F -0.6 °F 1031.0 in Calm     93 % 0.0 in
23:44 0.4 °F -0.6 °F 1030.0 in Calm     93 % 0.0 in
23:49 0.4 °F -0.6 °F 1030.0 in Calm     93 % 0.0 in
23:54 0.5 °F -0.5 °F 1030.0 in Calm     93 % 0.0 in
23:59 0.5 °F -0.5 °F 1031.0 in Calm     93 % 0.0 in
Vremenska postaja Senovo
Podatki zbrani iz Weather Underground - 3 mb

Script developed by  Jim McMurry - jmcmurry@mwt.net Adapted for the template by  Wim van der Kuil - Leuven-Template.eu

Vremenski podatki so objavljeni na:

European Weather Network

WeatherCloud

Weather Underground

AWEKAS

HAMweather, WeatherForYou, PWS Weather

MapView

Geostik

Slovenia weather network

Oprema, ki se uporablja:

Vremenski program
Cumulus

Vremenski server
Asus

Cumulus

Asus